Terminal Aerodrome Forecast
Issued by NWS Tampa Bay Area, FL

Home | Current Version | Previous Version | Text Only | Print | Product List | Glossary On
Versions: 1 2 3 4 5 6 7 8 9 10 11 12 13 14 15 16 17 18 19 20 21 22 23 24 25 26
507
FTUS42 KTBW 230815 AAB
TAFTPA
TAF AMD
KTPA 230815Z 2308/2406 VRB03KT P6SM VCSH SCT005 BKN120
      TEMPO 2308/2312 5SM BR BKN005
     FM231400 35006KT P6SM SCT020 BKN120
     FM231700 01009KT P6SM SCT030 SCT120=

USA.gov is the U.S. government's official web portal to all federal, state and local government web resources and services.